Time;durP1;ratioP1;P1;durP2;ratioP2;P2;SDS_P1;SDS_P2;PMS_P1;PMS_P2;Temp;Humidity;BMP_temperature;BMP_pressure;BME280_temperature;BME280_humidity;BME280_pressure;Samples;Min_cycle;Max_cycle;Signal;HPM_P1;HPM_P2
2022/12/07 00:01:48;;;;;;;19.00;14.60;;;;;;;3.07;72.70;99875.05;108369;1280;23802;-84
2022/12/07 00:04:18;;;;;;;16.60;13.10;;;;;;;3.01;72.77;99872.38;108462;1280;21960;-83
2022/12/07 00:06:52;;;;;;;16.50;12.80;;;;;;;3.00;72.85;99875.50;108242;1283;23595;-84
2022/12/07 00:09:21;;;;;;;15.20;12.60;;;;;;;2.98;72.82;99877.23;108441;1278;21902;-83
2022/12/07 00:11:51;;;;;;;17.80;13.60;;;;;;;2.96;72.91;99875.73;108416;1280;23587;-84
2022/12/07 00:14:23;;;;;;;20.10;16.50;;;;;;;2.93;72.88;99877.14;108481;1280;22112;-84
2022/12/07 00:16:52;;;;;;;18.10;14.50;;;;;;;2.88;72.83;99874.11;108416;1283;22355;-83
2022/12/07 00:19:21;;;;;;;19.40;16.80;;;;;;;2.86;72.94;99873.29;108438;1277;22680;-83
2022/12/07 00:21:50;;;;;;;17.20;15.40;;;;;;;2.85;72.90;99871.92;108652;1277;21932;-83
2022/12/07 00:24:19;;;;;;;16.80;15.00;;;;;;;2.83;72.99;99872.64;108781;1277;21933;-83
2022/12/07 00:26:48;;;;;;;17.60;15.70;;;;;;;2.84;73.14;99871.27;108731;1277;22207;-83
2022/12/07 00:29:21;;;;;;;18.70;14.70;;;;;;;2.85;73.00;99870.73;108656;1277;23093;-83
2022/12/07 00:31:50;;;;;;;14.90;13.50;;;;;;;2.82;72.98;99874.55;108767;1277;21927;-82
2022/12/07 00:34:21;;;;;;;15.60;13.60;;;;;;;2.81;73.05;99872.84;108758;1277;22016;-83
2022/12/07 00:36:51;;;;;;;14.50;13.10;;;;;;;2.82;73.16;99872.13;108804;1277;21957;-84
2022/12/07 00:39:20;;;;;;;14.50;13.10;;;;;;;2.80;72.90;99871.32;108748;1277;23606;-84
2022/12/07 00:41:49;;;;;;;15.00;13.20;;;;;;;2.75;72.94;99872.23;108450;1283;23086;-82
2022/12/07 00:44:18;;;;;;;16.40;14.80;;;;;;;2.71;73.03;99871.59;108391;1283;21934;-82
2022/12/07 00:46:47;;;;;;;15.80;14.10;;;;;;;2.69;73.17;99866.30;108545;1281;22009;-84
2022/12/07 00:49:16;;;;;;;14.00;12.50;;;;;;;2.67;73.14;99868.90;108538;1281;21909;-82
2022/12/07 00:51:49;;;;;;;15.20;13.60;;;;;;;2.68;73.20;99869.41;108318;1283;21975;-81
2022/12/07 00:54:18;;;;;;;15.90;14.30;;;;;;;2.68;73.34;99864.08;107657;1288;22878;-83
2022/12/07 00:56:47;;;;;;;15.00;13.50;;;;;;;2.66;73.28;99862.73;107962;1288;22402;-81
2022/12/07 00:59:16;;;;;;;18.70;15.10;;;;;;;2.64;73.37;99858.12;107757;1285;22119;-80
2022/12/07 01:01:45;;;;;;;14.70;13.30;;;;;;;2.62;73.43;99853.50;108127;1284;21944;-80
2022/12/07 01:04:17;;;;;;;14.20;12.70;;;;;;;2.60;73.46;99855.59;108086;1283;23685;-81
2022/12/07 01:06:46;;;;;;;;;;;;;;;2.58;73.55;99851.15;107719;1291;21940;-81
2022/12/07 01:09:15;;;;;;;17.70;15.80;;;;;;;2.50;73.85;99850.39;107615;1294;21974;-81
2022/12/07 01:11:44;;;;;;;18.50;16.70;;;;;;;2.51;74.00;99846.60;107666;1286;22863;-82
2022/12/07 01:14:16;;;;;;;17.20;15.40;;;;;;;2.54;73.98;99845.54;108001;1285;23587;-82
2022/12/07 01:16:46;;;;;;;16.80;15.00;;;;;;;2.56;74.16;99840.02;108250;1285;21950;-83
2022/12/07 01:19:15;;;;;;;18.00;15.40;;;;;;;2.59;74.14;99839.29;108052;1285;22132;-82
2022/12/07 01:21:47;;;;;;;17.50;15.70;;;;;;;2.63;74.14;99838.89;107533;1291;21958;-82
2022/12/07 01:24:16;;;;;;;19.10;14.90;;;;;;;2.65;74.07;99837.66;107969;1286;21940;-81
2022/12/07 01:26:49;;;;;;;15.60;13.90;;;;;;;2.66;74.14;99831.80;108538;1283;23018;-81
2022/12/07 01:29:19;;;;;;;17.20;15.00;;;;;;;2.67;74.08;99831.61;108604;1283;21903;-82
2022/12/07 01:31:49;;;;;;;17.40;15.50;;;;;;;2.67;74.00;99832.81;108608;1281;21957;-80
2022/12/07 01:34:18;;;;;;;15.90;14.40;;;;;;;2.68;73.96;99831.44;108552;1283;23016;-80
2022/12/07 01:36:47;;;;;;;14.70;13.40;;;;;;;2.69;73.95;99832.61;108462;1282;21948;-83
2022/12/07 01:39:16;;;;;;;14.20;12.80;;;;;;;2.69;73.93;99831.41;108776;1280;21913;-84
2022/12/07 01:41:48;;;;;;;17.70;14.50;;;;;;;2.69;73.87;99832.79;108695;1280;21926;-82
2022/12/07 01:44:32;;;;;;;15.90;14.30;;;;;;;2.67;73.94;99829.05;108723;1278;23679;-84
2022/12/07 01:47:07;;;;;;;16.40;14.80;;;;;;;2.65;73.89;99824.62;108869;1280;21961;-83
2022/12/07 01:49:52;;;;;;;15.70;14.10;;;;;;;2.63;73.99;99821.37;108854;1277;21982;-82
2022/12/07 01:52:33;;;;;;;17.10;15.30;;;;;;;2.62;74.11;99820.34;108820;1279;21971;-83
2022/12/07 01:55:15;;;;;;;16.10;14.40;;;;;;;2.62;74.04;99819.50;108754;1276;22061;-82
2022/12/07 01:57:50;;;;;;;16.70;15.00;;;;;;;2.62;74.13;99820.34;108864;1277;21962;-82
2022/12/07 02:00:21;;;;;;;17.70;15.50;;;;;;;2.61;74.03;99820.70;108774;1280;21963;-82
2022/12/07 02:03:09;;;;;;;20.80;16.20;;;;;;;2.59;74.08;99821.58;108530;1285;21935;-81
2022/12/07 02:05:41;;;;;;;17.30;15.50;;;;;;;2.57;74.26;99825.55;108675;1284;23767;-81
2022/12/07 02:08:13;;;;;;;18.60;16.60;;;;;;;2.56;74.25;99821.27;108522;1282;22038;-82
2022/12/07 02:10:42;;;;;;;19.80;17.40;;;;;;;2.58;74.46;99817.14;108621;1283;21952;-83
2022/12/07 02:13:16;;;;;;;18.30;16.10;;;;;;;2.60;74.55;99817.80;108603;1282;22464;-82
2022/12/07 02:16:26;;;;;;;18.50;16.50;;;;;;;2.62;74.66;99818.98;108755;1283;21956;-82
2022/12/07 02:19:44;;;;;;;17.90;15.30;;;;;;;2.62;74.70;99817.59;108669;1282;21965;-83
2022/12/07 02:22:47;;;;;;;16.60;14.80;;;;;;;2.60;74.82;99817.29;108639;1275;23612;-83
2022/12/07 02:25:49;;;;;;;17.10;15.30;;;;;;;2.59;74.88;99811.63;108783;1282;21967;-83
2022/12/07 02:28:48;;;;;;;15.00;13.40;;;;;;;2.59;75.04;99814.20;107546;1294;21956;-83
2022/12/07 02:31:31;;;;;;;15.60;13.90;;;;;;;2.62;75.20;99810.05;107448;1294;23107;-86
2022/12/07 02:34:21;;;;;;;15.20;12.60;;;;;;;2.66;75.39;99805.52;107684;1292;22008;-82
2022/12/07 02:37:00;;;;;;;13.50;12.10;;;;;;;2.68;75.39;99804.63;107375;1295;21973;-84
2022/12/07 02:39:46;;;;;;;13.90;12.30;;;;;;;2.73;75.52;99801.63;107521;1295;21993;-84
2022/12/07 02:42:31;;;;;;;13.00;11.10;;;;;;;2.75;75.44;99800.56;107574;1295;22765;-83
2022/12/07 02:45:04;;;;;;;11.60;10.40;;;;;;;2.74;75.31;99798.17;107621;1294;22015;-81
2022/12/07 02:47:35;;;;;;;11.20;9.70;;;;;;;2.75;75.35;99795.59;108177;1288;23810;-83
2022/12/07 02:50:07;;;;;;;10.50;9.40;;;;;;;2.75;75.46;99794.90;108069;1288;23093;-82
2022/12/07 02:52:39;;;;;;;11.60;10.20;;;;;;;2.77;75.43;99794.52;107429;1294;23829;-82
2022/12/07 02:55:08;;;;;;;10.10;9.10;;;;;;;2.78;75.57;99797.44;107609;1295;21991;-83
2022/12/07 02:57:43;;;;;;;12.40;9.40;;;;;;;2.81;75.78;99796.36;107961;1291;23051;-83
2022/12/07 03:00:18;;;;;;;9.60;8.70;;;;;;;2.84;75.82;99793.23;107836;1291;23806;-81
2022/12/07 03:03:09;;;;;;;10.30;9.30;;;;;;;2.84;75.62;99792.70;107555;1292;23739;-82
2022/12/07 03:06:01;;;;;;;12.70;10.30;;;;;;;2.83;75.68;99794.09;107877;1288;21975;-82
2022/12/07 03:08:52;;;;;;;11.80;9.50;;;;;;;2.82;75.89;99796.88;108232;1288;21942;-83
2022/12/07 03:11:47;;;;;;;11.30;10.10;;;;;;;2.82;75.96;99794.48;108474;1281;22001;-82
2022/12/07 03:14:33;;;;;;;11.10;9.70;;;;;;;2.81;76.05;99793.09;108369;1278;21937;-82
2022/12/07 03:17:12;;;;;;;11.20;10.10;;;;;;;2.80;76.09;99794.67;108630;1283;21945;-82
2022/12/07 03:19:44;;;;;;;13.90;10.60;;;;;;;2.79;76.16;99794.69;108186;1283;22024;-81
2022/12/07 03:22:15;;;;;;;13.00;11.30;;;;;;;2.81;76.19;99795.85;108682;1280;23602;-83
2022/12/07 03:25:00;;;;;;;14.30;12.70;;;;;;;2.83;76.24;99795.82;108866;1283;23705;-83
2022/12/07 03:27:41;;;;;;;14.70;11.20;;;;;;;2.82;76.24;99794.46;108863;1277;21981;-83
2022/12/07 03:30:17;;;;;;;12.20;10.90;;;;;;;2.83;76.37;99791.52;108300;1275;24147;-82
2022/12/07 03:33:12;;;;;;;13.30;11.10;;;;;;;2.83;76.42;99789.64;108693;1282;21936;-81
2022/12/07 03:35:51;;;;;;;15.60;11.40;;;;;;;2.84;76.52;99787.56;108726;1277;21998;-82
2022/12/07 03:38:34;;;;;;;14.10;11.30;;;;;;;2.87;76.47;99786.98;109115;1280;21996;-83
2022/12/07 03:41:18;;;;;;;12.00;10.30;;;;;;;2.90;76.45;99783.85;108743;1283;22263;-84
2022/12/07 03:43:47;;;;;;;11.50;10.30;;;;;;;2.93;76.46;99779.34;108723;1283;21955;-84
2022/12/07 03:46:44;;;;;;;10.70;9.30;;;;;;;2.98;76.46;99775.30;108928;1281;22337;-85
2022/12/07 03:49:27;;;;;;;10.50;8.90;;;;;;;2.99;76.41;99772.70;109104;1277;23053;-85
2022/12/07 03:52:38;;;;;;;10.30;8.60;;;;;;;3.00;76.40;99771.84;108992;1277;21946;-84
2022/12/07 03:55:14;;;;;;;12.80;9.40;;;;;;;2.99;76.45;99771.17;108965;1278;21945;-83
2022/12/07 03:57:47;;;;;;;10.40;9.00;;;;;;;3.00;76.51;99772.36;108504;1286;21975;-82
2022/12/07 04:00:18;;;;;;;11.20;10.10;;;;;;;3.02;76.46;99771.64;108191;1283;21969;-82
2022/12/07 04:02:47;;;;;;;12.80;11.40;;;;;;;3.03;76.44;99770.91;108152;1286;21919;-83
2022/12/07 04:05:16;;;;;;;9.80;8.60;;;;;;;3.04;76.38;99769.37;108295;1286;22893;-82
2022/12/07 04:07:45;;;;;;;11.20;9.60;;;;;;;3.04;76.39;99767.64;108146;1286;22056;-82
2022/12/07 04:10:15;;;;;;;10.40;9.30;;;;;;;3.04;76.36;99766.61;108637;1286;23595;-85
2022/12/07 04:12:44;;;;;;;9.60;8.30;;;;;;;3.05;76.35;99768.50;108212;1286;21987;-81
2022/12/07 04:15:13;;;;;;;9.80;8.80;;;;;;;3.07;76.40;99766.23;107777;1289;22258;-81
2022/12/07 04:17:42;;;;;;;10.00;8.90;;;;;;;3.12;76.52;99766.31;108400;1286;24520;-82
2022/12/07 04:20:12;;;;;;;9.70;8.30;;;;;;;3.16;76.53;99765.90;108643;1285;23129;-82
2022/12/07 04:22:42;;;;;;;9.30;8.40;;;;;;;3.16;76.34;99763.85;108454;1286;21941;-83
2022/12/07 04:25:12;;;;;;;9.60;8.60;;;;;;;3.13;76.31;99762.84;108439;1284;21964;-83
2022/12/07 04:27:42;;;;;;;10.30;9.30;;;;;;;3.12;76.23;99765.79;108482;1286;21746;-83
2022/12/07 04:30:21;;;;;;;10.40;9.50;;;;;;;3.09;76.22;99767.23;108887;1286;21995;-83
2022/12/07 04:32:51;;;;;;;10.70;9.20;;;;;;;3.09;76.23;99767.21;108677;1281;21953;-84
2022/12/07 04:35:33;;;;;;;12.00;10.80;;;;;;;3.09;76.17;99763.27;109016;1278;22650;-84
2022/12/07 04:38:06;;;;;;;11.30;10.20;;;;;;;3.07;76.14;99760.20;108852;1281;21927;-83
2022/12/07 04:40:44;;;;;;;12.30;9.60;;;;;;;3.07;76.17;99759.33;108976;1277;22336;-84
2022/12/07 04:43:13;;;;;;;11.10;10.00;;;;;;;3.07;76.15;99759.86;108816;1283;22727;-83
2022/12/07 04:45:47;;;;;;;12.00;9.50;;;;;;;3.07;76.14;99761.08;108942;1283;21967;-84
2022/12/07 04:48:17;;;;;;;10.90;9.50;;;;;;;3.07;76.08;99761.74;108758;1272;21917;-83
2022/12/07 04:50:49;;;;;;;10.70;9.60;;;;;;;3.07;76.16;99764.33;108727;1278;21938;-81
2022/12/07 04:53:19;;;;;;;11.40;10.30;;;;;;;3.05;76.08;99763.16;108690;1283;21960;-83
2022/12/07 04:55:48;;;;;;;10.80;9.70;;;;;;;3.04;76.09;99762.14;108897;1280;21909;-81
2022/12/07 04:58:18;;;;;;;11.20;10.10;;;;;;;3.06;76.23;99759.36;108817;1283;21936;-81
2022/12/07 05:00:47;;;;;;;10.80;9.70;;;;;;;3.07;76.25;99763.98;108867;1281;21924;-80
2022/12/07 05:03:16;;;;;;;11.00;9.90;;;;;;;3.09;76.24;99763.44;108700;1277;21968;-81
2022/12/07 05:05:46;;;;;;;12.60;11.20;;;;;;;3.10;76.20;99763.27;108952;1277;23674;-81
2022/12/07 05:08:15;;;;;;;10.70;9.60;;;;;;;3.10;76.17;99764.46;108899;1277;21977;-81
2022/12/07 05:10:44;;;;;;;10.20;9.20;;;;;;;3.07;76.18;99760.04;108772;1279;21935;-80
2022/12/07 05:13:14;;;;;;;9.20;8.30;;;;;;;3.07;76.15;99761.58;108996;1281;21951;-84
2022/12/07 05:15:46;;;;;;;9.30;8.40;;;;;;;3.08;76.20;99765.70;108809;1283;21955;-81
2022/12/07 05:18:17;;;;;;;9.50;8.40;;;;;;;3.06;76.19;99761.42;108826;1280;23052;-81
2022/12/07 05:20:51;;;;;;;8.70;7.80;;;;;;;3.06;76.12;99762.64;108537;1281;23090;-84
2022/12/07 05:23:23;;;;;;;10.70;8.50;;;;;;;3.05;76.09;99761.45;108626;1279;22028;-81
2022/12/07 05:25:54;;;;;;;8.30;7.50;;;;;;;3.05;76.10;99766.08;108545;1288;22018;-81
2022/12/07 05:28:23;;;;;;;10.40;8.90;;;;;;;3.04;76.09;99771.08;108356;1288;23064;-82
2022/12/07 05:30:55;;;;;;;;;;;;;;;3.02;76.09;99771.63;108777;1285;21959;-83
2022/12/07 05:33:28;;;;;;;11.30;7.90;;;;;;;2.96;76.32;99772.23;108903;1283;23179;-82
2022/12/07 05:35:58;;;;;;;8.30;7.50;;;;;;;2.96;76.20;99772.41;108518;1288;23118;-81
2022/12/07 05:38:29;;;;;;;9.70;8.80;;;;;;;2.97;76.20;99774.13;107990;1288;22076;-82
2022/12/07 05:41:05;;;;;;;10.60;9.40;;;;;;;2.96;76.12;99775.17;108197;1288;22829;-81
2022/12/07 05:43:36;;;;;;;7.90;7.10;;;;;;;2.96;75.91;99775.86;108591;1287;21954;-83
2022/12/07 05:46:07;;;;;;;6.90;6.30;;;;;;;2.96;76.06;99772.95;108589;1282;21939;-83
2022/12/07 05:48:40;;;;;;;7.50;6.20;;;;;;;2.94;75.98;99774.34;108331;1277;21959;-83
2022/12/07 05:51:12;;;;;;;7.20;6.40;;;;;;;2.93;75.96;99775.40;108100;1287;21962;-84
2022/12/07 05:53:42;;;;;;;6.90;6.20;;;;;;;2.92;76.04;99771.95;108335;1288;21950;-84
2022/12/07 05:56:16;;;;;;;7.00;6.30;;;;;;;2.92;76.06;99771.63;108561;1288;21961;-83
2022/12/07 06:02:11;;;;;;;6.50;5.70;;;;;;;2.88;75.99;99769.61;108344;1288;21942;-84
2022/12/07 06:04:43;;;;;;;;;;;;;;;2.88;75.96;99767.21;108680;1288;21944;-82
2022/12/07 06:07:15;;;;;;;6.60;5.50;;;;;;;2.77;76.14;99763.25;108505;1286;21932;-84
2022/12/07 06:09:47;;;;;;;8.40;5.80;;;;;;;2.76;76.23;99763.96;108737;1280;21940;-83
2022/12/07 06:12:33;;;;;;;6.70;5.90;;;;;;;2.77;76.20;99769.27;108753;1286;23076;-84
2022/12/07 06:15:05;;;;;;;8.90;7.10;;;;;;;2.78;76.19;99770.11;108812;1286;21947;-83
2022/12/07 06:17:42;;;;;;;7.60;6.80;;;;;;;2.79;76.11;99774.40;108706;1286;21970;-84
2022/12/07 06:20:12;;;;;;;7.00;6.30;;;;;;;2.79;76.10;99772.34;108979;1288;22100;-83
2022/12/07 06:22:41;;;;;;;7.80;6.60;;;;;;;2.81;76.17;99772.31;108971;1279;21958;-83
2022/12/07 06:25:10;;;;;;;8.50;6.70;;;;;;;2.84;76.20;99764.70;108665;1280;23068;-82
2022/12/07 06:27:42;;;;;;;;;;;;;;;2.86;76.16;99762.60;108934;1281;22082;-84
2022/12/07 06:30:12;;;;;;;10.90;8.80;;;;;;;2.80;76.30;99753.42;109358;1280;21997;-84
2022/12/07 06:32:42;;;;;;;15.10;11.70;;;;;;;2.80;76.21;99750.84;108828;1277;22108;-83
2022/12/07 06:35:11;;;;;;;16.90;13.60;;;;;;;2.82;76.11;99754.24;109244;1277;21927;-84
2022/12/07 06:37:41;;;;;;;15.20;12.10;;;;;;;2.86;76.21;99756.77;109326;1281;21945;-84
2022/12/07 06:40:11;;;;;;;13.00;11.20;;;;;;;2.87;76.17;99751.77;109190;1277;21994;-83
2022/12/07 06:42:41;;;;;;;13.50;11.40;;;;;;;2.89;76.17;99761.02;109181;1280;23724;-84
2022/12/07 06:45:10;;;;;;;18.60;12.60;;;;;;;2.91;76.11;99760.98;108934;1280;22026;-83
2022/12/07 06:47:40;;;;;;;14.90;12.90;;;;;;;2.91;76.11;99762.52;108920;1274;21942;-84
2022/12/07 06:50:12;;;;;;;17.60;14.90;;;;;;;2.92;76.15;99761.83;109237;1280;21934;-84
2022/12/07 06:52:41;;;;;;;18.10;15.60;;;;;;;2.94;76.22;99761.96;108878;1285;23107;-85
2022/12/07 06:55:13;;;;;;;21.90;17.10;;;;;;;2.95;76.19;99758.17;108992;1289;23706;-84
2022/12/07 06:57:42;;;;;;;22.00;19.60;;;;;;;2.95;76.19;99760.91;108982;1289;21966;-84
2022/12/07 07:00:14;;;;;;;26.20;22.70;;;;;;;2.97;76.26;99766.91;108249;1291;23610;-85
2022/12/07 07:02:53;;;;;;;21.90;19.60;;;;;;;2.96;76.27;99769.33;108562;1291;21966;-84
2022/12/07 07:05:24;;;;;;;24.40;21.00;;;;;;;2.95;76.00;99767.80;108567;1291;21965;-84
2022/12/07 07:07:56;;;;;;;24.50;21.90;;;;;;;2.95;76.17;99765.90;108529;1291;21962;-84
2022/12/07 07:10:45;;;;;;;22.50;20.30;;;;;;;2.95;76.18;99759.89;108573;1285;22007;-85
2022/12/07 07:13:17;;;;;;;25.80;23.20;;;;;;;2.96;76.09;99761.77;108735;1286;21956;-85
2022/12/07 07:15:49;;;;;;;25.20;20.60;;;;;;;2.97;76.16;99758.49;108798;1287;23359;-84
2022/12/07 07:18:18;;;;;;;22.10;19.80;;;;;;;2.98;76.33;99757.25;108778;1280;21921;-82
2022/12/07 07:20:47;;;;;;;23.20;21.10;;;;;;;3.03;76.37;99761.13;109292;1281;21964;-83
2022/12/07 07:23:17;;;;;;;32.50;29.50;;;;;;;3.04;76.11;99765.24;109273;1277;21935;-82
2022/12/07 07:25:58;;;;;;;;;;;;;;;;;;;;;
2022/12/07 07:28:35;;;;;;;36.10;32.80;;;;;;;2.98;75.96;99762.75;109334;1283;22087;-85
2022/12/07 07:31:14;;;;;;;25.50;23.10;;;;;;;2.96;76.00;99762.61;109447;1283;21944;-87
2022/12/07 07:33:53;;;;;;;19.10;17.30;;;;;;;2.95;76.00;99761.94;109520;1284;21954;-85
2022/12/07 07:37:10;;;;;;;20.20;18.50;;;;;;;2.89;75.80;99756.54;109350;1283;21976;-86
2022/12/07 07:39:52;;;;;;;23.00;20.80;;;;;;;2.82;75.87;99751.85;109185;1286;23677;-87
2022/12/07 07:42:38;;;;;;;19.70;17.80;;;;;;;2.81;76.01;99752.72;109172;1285;21964;-87
2022/12/07 07:45:30;;;;;;;17.30;15.60;;;;;;;2.80;76.11;99752.57;109011;1286;23857;-87
2022/12/07 07:48:05;;;;;;;23.60;21.40;;;;;;;2.80;76.07;99756.52;109293;1286;21966;-87
2022/12/07 07:50:38;;;;;;;22.80;20.80;;;;;;;2.80;76.06;99754.29;108894;1288;21968;-84
2022/12/07 07:53:13;;;;;;;19.60;17.70;;;;;;;2.80;76.20;99754.80;108801;1287;23084;-85
2022/12/07 07:55:57;;;;;;;24.40;21.80;;;;;;;2.81;76.12;99755.46;109202;1285;21967;-87
2022/12/07 07:58:46;;;;;;;;;;;;;;;;;;;;;
2022/12/07 08:01:28;;;;;;;18.90;17.20;;;;;;;2.81;76.19;99761.31;109198;1282;21954;-86
2022/12/07 08:04:01;;;;;;;24.90;22.40;;;;;;;2.85;76.30;99756.77;109166;1281;21979;-85
2022/12/07 08:06:33;;;;;;;19.40;17.50;;;;;;;2.93;76.41;99758.89;109107;1283;23586;-81
2022/12/07 08:09:04;;;;;;;18.10;16.40;;;;;;;2.99;76.29;99753.80;109333;1281;21995;-86
2022/12/07 08:11:36;;;;;;;18.40;16.50;;;;;;;3.06;76.22;99751.45;109202;1281;21938;-87
2022/12/07 08:14:05;;;;;;;16.60;14.90;;;;;;;3.09;76.15;99751.74;109470;1280;21947;-86
2022/12/07 08:16:35;;;;;;;18.40;16.70;;;;;;;3.12;76.01;99751.02;109324;1281;21946;-85
2022/12/07 08:19:08;;;;;;;16.70;15.00;;;;;;;3.14;75.84;99752.52;109377;1280;21861;-86
2022/12/07 08:21:37;;;;;;;17.70;15.40;;;;;;;3.17;75.95;99751.95;109281;1277;21931;-85
2022/12/07 08:24:07;;;;;;;17.00;15.50;;;;;;;3.20;75.81;99750.18;109425;1277;22019;-86
2022/12/07 08:26:37;;;;;;;15.30;14.00;;;;;;;3.22;75.64;99753.23;109524;1279;22415;-86
2022/12/07 08:29:06;;;;;;;16.80;15.30;;;;;;;3.22;75.58;99754.79;109372;1280;21934;-83
2022/12/07 08:31:35;;;;;;;18.60;14.40;;;;;;;3.25;75.55;99749.77;109483;1278;23064;-84
2022/12/07 08:34:05;;;;;;;17.50;15.80;;;;;;;3.26;75.41;99751.98;109426;1281;21927;-86
2022/12/07 08:36:36;;;;;;;16.60;15.10;;;;;;;3.28;75.35;99747.48;109358;1284;21959;-86
2022/12/07 08:39:05;;;;;;;15.20;13.80;;;;;;;3.27;75.36;99747.83;109171;1286;22392;-87
2022/12/07 08:41:55;;;;;;;16.20;13.90;;;;;;;3.27;75.18;99750.77;109138;1285;22638;-87
2022/12/07 08:44:40;;;;;;;17.20;15.50;;;;;;;3.27;75.14;99753.68;108202;1283;1508632;-86
2022/12/07 08:47:19;;;;;;;14.90;13.40;;;;;;;3.27;75.12;99758.84;109534;1277;21978;-87
2022/12/07 08:49:56;;;;;;;15.50;13.90;;;;;;;3.24;74.99;99756.13;109358;1285;22038;-86
2022/12/07 08:52:26;;;;;;;16.40;14.50;;;;;;;3.16;74.85;99753.86;109253;1286;22144;-86
2022/12/07 08:55:05;;;;;;;15.30;13.80;;;;;;;3.17;74.97;99759.52;109338;1281;21937;-84
2022/12/07 08:57:39;;;;;;;19.30;16.80;;;;;;;3.16;75.14;99756.61;109377;1280;22399;-86
2022/12/07 09:00:12;;;;;;;17.80;14.90;;;;;;;3.22;75.42;99753.43;109298;1286;21989;-86
2022/12/07 09:02:46;;;;;;;15.30;13.70;;;;;;;3.31;75.28;99755.16;109228;1286;21913;-86
2022/12/07 09:05:30;;;;;;;15.20;13.00;;;;;;;3.31;74.87;99755.33;108973;1291;21908;-84
2022/12/07 09:08:20;;;;;;;11.30;10.10;;;;;;;3.29;74.57;99752.61;108847;1284;21940;-86
2022/12/07 09:11:11;;;;;;;9.20;7.10;;;;;;;3.22;74.21;99754.45;108662;1292;21947;-86
2022/12/07 09:13:43;;;;;;;10.10;9.10;;;;;;;3.19;74.10;99754.34;108777;1290;21949;-85
2022/12/07 09:16:32;;;;;;;9.90;9.00;;;;;;;3.20;74.16;99746.05;108909;1291;21960;-85
2022/12/07 09:19:05;;;;;;;7.80;6.80;;;;;;;3.18;73.61;99741.10;108352;1291;21927;-85
2022/12/07 09:21:40;;;;;;;8.40;7.60;;;;;;;3.15;73.42;99736.17;108400;1291;23218;-84
2022/12/07 09:24:13;;;;;;;8.00;7.00;;;;;;;3.12;73.17;99733.98;108851;1288;21970;-85
2022/12/07 09:26:50;;;;;;;10.20;9.20;;;;;;;3.10;73.04;99733.33;108257;1292;21949;-85
2022/12/07 09:29:31;;;;;;;9.00;8.10;;;;;;;3.11;73.08;99731.08;108650;1287;22054;-85
2022/12/07 09:32:04;;;;;;;10.30;9.30;;;;;;;3.13;72.79;99736.38;108950;1291;21944;-85
2022/12/07 09:34:40;;;;;;;12.10;10.90;;;;;;;3.13;72.60;99735.36;108179;1295;23629;-84
2022/12/07 09:37:15;;;;;;;;;;;;;;;3.12;72.33;99729.69;108426;1292;21927;-85
2022/12/07 09:40:04;;;;;;;21.60;18.00;;;;;;;3.01;72.43;99726.45;108694;1290;22409;-84
2022/12/07 09:42:44;;;;;;;21.60;18.10;;;;;;;2.99;72.20;99724.93;108729;1292;21975;-86
2022/12/07 09:45:26;;;;;;;18.20;15.70;;;;;;;3.00;72.36;99722.67;108462;1291;21967;-87
2022/12/07 09:48:00;;;;;;;17.00;14.90;;;;;;;3.05;72.29;99720.70;108397;1287;23070;-87
2022/12/07 09:50:32;;;;;;;14.00;12.50;;;;;;;3.10;72.29;99718.38;107859;1294;21972;-86
2022/12/07 09:53:29;;;;;;;16.50;14.20;;;;;;;3.18;72.31;99718.92;108378;1291;21973;-86
2022/12/07 09:56:02;;;;;;;15.70;11.50;;;;;;;3.24;72.24;99717.79;108147;1298;21973;-86
2022/12/07 09:58:35;;;;;;;14.20;12.10;;;;;;;3.26;71.73;99718.27;107921;1295;21916;-88
2022/12/07 10:01:07;;;;;;;14.30;12.80;;;;;;;3.28;71.73;99715.14;108097;1296;21973;-87
2022/12/07 10:03:42;;;;;;;16.10;14.50;;;;;;;3.33;71.74;99712.98;108314;1292;21968;-79
2022/12/07 10:06:12;;;;;;;19.60;16.30;;;;;;;3.37;71.42;99708.27;107781;1293;21969;-83
2022/12/07 10:08:44;;;;;;;22.60;17.30;;;;;;;3.38;71.41;99703.94;107755;1288;21947;-79
2022/12/07 10:11:15;;;;;;;27.50;19.00;;;;;;;3.44;71.37;99703.66;108222;1284;21960;-79
2022/12/07 10:13:53;;;;;;;29.90;20.60;;;;;;;3.51;71.44;99698.52;108478;1271;23090;-80
2022/12/07 10:16:39;;;;;;;21.60;17.90;;;;;;;3.59;71.48;99696.67;108465;1283;23653;-79
2022/12/07 10:19:27;;;;;;;19.10;17.10;;;;;;;3.68;71.50;99687.02;108540;1280;23054;-78
2022/12/07 10:22:16;;;;;;;17.20;15.00;;;;;;;3.73;71.24;99682.11;108575;1277;22003;-82
2022/12/07 10:24:47;;;;;;;19.30;15.30;;;;;;;3.79;71.21;99682.83;108748;1279;22290;-79
2022/12/07 10:27:32;;;;;;;18.30;16.30;;;;;;;3.86;71.07;99680.79;108597;1278;21945;-79
2022/12/07 10:30:18;;;;;;;20.60;18.40;;;;;;;3.91;70.83;99677.09;109033;1281;21929;-83
2022/12/07 10:32:49;;;;;;;19.10;17.10;;;;;;;3.96;70.74;99669.23;109125;1281;21971;-85
2022/12/07 10:35:30;;;;;;;18.00;16.20;;;;;;;3.99;70.31;99667.44;108677;1281;22073;-85
2022/12/07 10:38:16;;;;;;;12.90;11.60;;;;;;;4.01;70.13;99663.44;108559;1281;21942;-83
2022/12/07 10:40:46;;;;;;;16.80;15.00;;;;;;;3.98;69.95;99658.87;108757;1278;23676;-84
2022/12/07 10:43:21;;;;;;;32.70;26.60;;;;;;;3.97;69.92;99656.65;109457;1280;21946;-86
2022/12/07 10:46:17;;;;;;;25.20;20.80;;;;;;;3.96;69.71;99655.12;109462;1277;22666;-87
2022/12/07 10:49:04;;;;;;;29.00;23.40;;;;;;;3.92;69.64;99655.55;109111;1277;23682;-84
2022/12/07 10:51:50;;;;;;;25.30;18.70;;;;;;;3.90;69.56;99658.52;108709;1282;23628;-82
2022/12/07 10:54:45;;;;;;;23.00;19.80;;;;;;;3.90;69.59;99653.01;108871;1282;21932;-85
2022/12/07 10:58:23;;;;;;;22.00;19.20;;;;;;;3.92;69.76;99644.70;109303;1288;21948;-87
2022/12/07 11:01:32;;;;;;;20.70;18.20;;;;;;;3.95;69.79;99639.48;109458;1285;21965;-87
2022/12/07 11:04:28;;;;;;;19.10;15.70;;;;;;;4.00;69.77;99634.20;109262;1286;21988;-87
2022/12/07 11:07:21;;;;;;;21.00;18.90;;;;;;;4.03;69.72;99627.92;109307;1280;21941;-82
2022/12/07 11:10:28;;;;;;;26.40;23.80;;;;;;;4.09;69.71;99623.49;108685;1287;23696;-86
2022/12/07 11:13:23;;;;;;;24.20;21.80;;;;;;;4.18;69.79;99621.55;107916;1293;22111;-84
2022/12/07 11:16:27;;;;;;;26.30;23.70;;;;;;;4.23;69.57;99618.87;108075;1287;21963;-84
2022/12/07 11:19:58;;;;;;;24.20;21.70;;;;;;;4.22;69.25;99618.89;108510;1288;21939;-85
2022/12/07 11:22:42;;;;;;;26.20;23.50;;;;;;;4.13;69.05;99615.47;108267;1285;21966;-81
2022/12/07 11:25:25;;;;;;;43.00;36.30;;;;;;;4.09;69.01;99615.05;108199;1288;22365;-86
2022/12/07 11:28:38;;;;;;;32.60;28.50;;;;;;;4.03;68.87;99610.72;108409;1283;23058;-83
2022/12/07 11:31:41;;;;;;;26.90;24.30;;;;;;;3.93;68.86;99603.88;108580;1285;23365;-83
2022/12/07 11:35:20;;;;;;;23.80;21.40;;;;;;;3.86;68.99;99604.72;108146;1285;22346;-82
2022/12/07 11:38:19;;;;;;;20.50;18.20;;;;;;;3.76;69.20;99597.55;108105;1289;22536;-80
2022/12/07 11:41:14;;;;;;;29.20;23.70;;;;;;;3.68;69.27;99594.61;108093;1289;22045;-84
2022/12/07 11:44:26;;;;;;;21.20;18.70;;;;;;;3.62;69.37;99589.77;108094;1288;22424;-86
2022/12/07 11:47:17;;;;;;;19.90;17.80;;;;;;;3.57;69.61;99586.95;108042;1289;21963;-81
2022/12/07 11:50:14;;;;;;;23.30;20.90;;;;;;;3.54;69.79;99585.45;107458;1288;23758;-78
2022/12/07 11:53:09;;;;;;;25.40;22.70;;;;;;;3.53;69.88;99585.64;107808;1289;24447;-84
2022/12/07 11:55:57;;;;;;;33.20;29.90;;;;;;;3.53;70.09;99585.30;108323;1289;23872;-84
2022/12/07 11:58:33;;;;;;;31.00;27.90;;;;;;;3.54;70.10;99579.45;108430;1289;22307;-85
2022/12/07 12:01:17;;;;;;;31.90;28.60;;;;;;;3.53;70.17;99582.54;108252;1288;23043;-85
2022/12/07 12:04:11;;;;;;;30.90;27.60;;;;;;;3.50;70.18;99583.30;108435;1289;22590;-85
2022/12/07 12:06:45;;;;;;;29.30;26.40;;;;;;;3.46;70.21;99582.02;107853;1294;21952;-87
2022/12/07 12:10:21;;;;;;;28.30;25.10;;;;;;;3.40;70.45;99578.18;107860;1291;21952;-86
2022/12/07 12:13:08;;;;;;;27.40;24.60;;;;;;;3.37;70.52;99576.88;108035;1287;22059;-84
2022/12/07 12:16:31;;;;;;;28.50;25.40;;;;;;;3.38;70.79;99573.59;108467;1283;23823;-86
2022/12/07 12:20:17;;;;;;;25.00;22.50;;;;;;;3.39;70.98;99578.20;107967;1291;23625;-83